sensor_id;sensor_type;location;lat;lon;timestamp;P1;durP1;ratioP1;P2;durP2;ratioP2
37097;SDS011;63608;49.572;12.348;2023-05-14T00:00:04;8.00;;;7.37;;
37097;SDS011;63608;49.572;12.348;2023-05-14T00:02:08;8.27;;;7.47;;
37097;SDS011;63608;49.572;12.348;2023-05-14T00:04:11;8.40;;;7.60;;
37097;SDS011;63608;49.572;12.348;2023-05-14T00:06:14;9.00;;;8.10;;
37097;SDS011;63608;49.572;12.348;2023-05-14T00:08:17;8.40;;;7.70;;
37097;SDS011;63608;49.572;12.348;2023-05-14T00:10:19;9.00;;;8.20;;
37097;SDS011;63608;49.572;12.348;2023-05-14T00:12:22;8.13;;;7.40;;
37097;SDS011;63608;49.572;12.348;2023-05-14T00:14:27;8.70;;;7.50;;
37097;SDS011;63608;49.572;12.348;2023-05-14T00:16:30;8.43;;;7.73;;
37097;SDS011;63608;49.572;12.348;2023-05-14T00:18:33;8.47;;;7.77;;
37097;SDS011;63608;49.572;12.348;2023-05-14T00:20:35;8.60;;;7.80;;
37097;SDS011;63608;49.572;12.348;2023-05-14T00:22:40;8.67;;;7.87;;
37097;SDS011;63608;49.572;12.348;2023-05-14T00:24:43;7.70;;;7.10;;
37097;SDS011;63608;49.572;12.348;2023-05-14T00:26:48;8.80;;;8.00;;
37097;SDS011;63608;49.572;12.348;2023-05-14T00:28:53;8.33;;;7.53;;
37097;SDS011;63608;49.572;12.348;2023-05-14T00:31:05;8.43;;;7.73;;
37097;SDS011;63608;49.572;12.348;2023-05-14T00:33:10;9.70;;;7.37;;
37097;SDS011;63608;49.572;12.348;2023-05-14T00:35:13;7.57;;;6.93;;
37097;SDS011;63608;49.572;12.348;2023-05-14T00:37:15;8.03;;;7.40;;
37097;SDS011;63608;49.572;12.348;2023-05-14T00:39:20;7.67;;;7.07;;
37097;SDS011;63608;49.572;12.348;2023-05-14T00:41:27;8.33;;;7.50;;
37097;SDS011;63608;49.572;12.348;2023-05-14T00:43:30;8.00;;;7.20;;
37097;SDS011;63608;49.572;12.348;2023-05-14T00:45:33;7.37;;;6.77;;
37097;SDS011;63608;49.572;12.348;2023-05-14T00:47:38;7.80;;;7.17;;
37097;SDS011;63608;49.572;12.348;2023-05-14T00:49:45;7.47;;;6.87;;
37097;SDS011;63608;49.572;12.348;2023-05-14T00:51:47;6.80;;;6.27;;
37097;SDS011;63608;49.572;12.348;2023-05-14T00:53:50;9.33;;;6.63;;
37097;SDS011;63608;49.572;12.348;2023-05-14T00:55:53;8.00;;;6.93;;
37097;SDS011;63608;49.572;12.348;2023-05-14T00:57:56;7.67;;;7.07;;
37097;SDS011;63608;49.572;12.348;2023-05-14T00:59:59;8.10;;;7.30;;
37097;SDS011;63608;49.572;12.348;2023-05-14T01:02:02;8.13;;;7.33;;
37097;SDS011;63608;49.572;12.348;2023-05-14T01:04:08;7.63;;;7.00;;
37097;SDS011;63608;49.572;12.348;2023-05-14T01:06:13;8.70;;;7.90;;
37097;SDS011;63608;49.572;12.348;2023-05-14T01:08:21;7.93;;;7.23;;
37097;SDS011;63608;49.572;12.348;2023-05-14T01:10:31;7.80;;;7.00;;
37097;SDS011;63608;49.572;12.348;2023-05-14T01:12:37;8.43;;;7.73;;
37097;SDS011;63608;49.572;12.348;2023-05-14T01:14:50;8.53;;;7.73;;
37097;SDS011;63608;49.572;12.348;2023-05-14T01:16:59;8.40;;;7.70;;
37097;SDS011;63608;49.572;12.348;2023-05-14T01:19:04;8.60;;;7.80;;
37097;SDS011;63608;49.572;12.348;2023-05-14T01:21:27;8.50;;;7.70;;
37097;SDS011;63608;49.572;12.348;2023-05-14T01:23:36;9.33;;;8.43;;
37097;SDS011;63608;49.572;12.348;2023-05-14T01:25:42;8.63;;;7.90;;
37097;SDS011;63608;49.572;12.348;2023-05-14T01:27:46;8.60;;;7.80;;
37097;SDS011;63608;49.572;12.348;2023-05-14T01:29:57;8.87;;;7.93;;
37097;SDS011;63608;49.572;12.348;2023-05-14T01:32:03;9.33;;;8.43;;
37097;SDS011;63608;49.572;12.348;2023-05-14T01:34:09;8.73;;;8.03;;
37097;SDS011;63608;49.572;12.348;2023-05-14T01:36:21;8.57;;;7.67;;
37097;SDS011;63608;49.572;12.348;2023-05-14T01:38:26;9.33;;;8.30;;
37097;SDS011;63608;49.572;12.348;2023-05-14T01:40:33;8.77;;;7.97;;
37097;SDS011;63608;49.572;12.348;2023-05-14T01:42:37;8.50;;;7.70;;
37097;SDS011;63608;49.572;12.348;2023-05-14T01:44:41;8.87;;;7.90;;
37097;SDS011;63608;49.572;12.348;2023-05-14T01:46:45;8.17;;;7.37;;
37097;SDS011;63608;49.572;12.348;2023-05-14T01:48:47;8.80;;;8.00;;
37097;SDS011;63608;49.572;12.348;2023-05-14T01:50:51;9.87;;;8.87;;
37097;SDS011;63608;49.572;12.348;2023-05-14T01:52:53;9.50;;;8.67;;
37097;SDS011;63608;49.572;12.348;2023-05-14T01:54:58;8.70;;;7.90;;
37097;SDS011;63608;49.572;12.348;2023-05-14T01:57:04;8.40;;;7.70;;
37097;SDS011;63608;49.572;12.348;2023-05-14T01:59:08;9.27;;;8.37;;
37097;SDS011;63608;49.572;12.348;2023-05-14T02:01:13;8.90;;;8.00;;
37097;SDS011;63608;49.572;12.348;2023-05-14T02:03:16;11.40;;;8.50;;
37097;SDS011;63608;49.572;12.348;2023-05-14T02:05:23;8.90;;;8.10;;
37097;SDS011;63608;49.572;12.348;2023-05-14T02:07:26;9.13;;;8.33;;
37097;SDS011;63608;49.572;12.348;2023-05-14T02:09:32;9.00;;;8.20;;
37097;SDS011;63608;49.572;12.348;2023-05-14T02:11:37;9.53;;;8.53;;
37097;SDS011;63608;49.572;12.348;2023-05-14T02:13:39;10.37;;;9.37;;
37097;SDS011;63608;49.572;12.348;2023-05-14T02:15:42;10.40;;;8.90;;
37097;SDS011;63608;49.572;12.348;2023-05-14T02:17:50;9.93;;;8.93;;
37097;SDS011;63608;49.572;12.348;2023-05-14T02:19:57;9.77;;;8.83;;
37097;SDS011;63608;49.572;12.348;2023-05-14T02:24:16;9.57;;;8.67;;
37097;SDS011;63608;49.572;12.348;2023-05-14T02:26:21;10.27;;;9.27;;
37097;SDS011;63608;49.572;12.348;2023-05-14T02:28:40;10.40;;;9.40;;
37097;SDS011;63608;49.572;12.348;2023-05-14T02:30:46;10.00;;;9.00;;
37097;SDS011;63608;49.572;12.348;2023-05-14T02:32:49;9.67;;;8.77;;
37097;SDS011;63608;49.572;12.348;2023-05-14T02:34:52;10.97;;;9.97;;
37097;SDS011;63608;49.572;12.348;2023-05-14T02:36:56;10.70;;;9.63;;
37097;SDS011;63608;49.572;12.348;2023-05-14T02:38:59;10.37;;;9.37;;
37097;SDS011;63608;49.572;12.348;2023-05-14T02:41:02;11.50;;;10.00;;
37097;SDS011;63608;49.572;12.348;2023-05-14T02:43:05;10.17;;;8.40;;
37097;SDS011;63608;49.572;12.348;2023-05-14T02:45:12;11.10;;;9.40;;
37097;SDS011;63608;49.572;12.348;2023-05-14T02:47:14;11.57;;;9.60;;
37097;SDS011;63608;49.572;12.348;2023-05-14T02:49:18;10.80;;;9.70;;
37097;SDS011;63608;49.572;12.348;2023-05-14T02:51:21;11.37;;;10.20;;
37097;SDS011;63608;49.572;12.348;2023-05-14T02:53:26;10.30;;;9.30;;
37097;SDS011;63608;49.572;12.348;2023-05-14T02:55:29;10.47;;;9.47;;
37097;SDS011;63608;49.572;12.348;2023-05-14T02:57:32;11.10;;;10.00;;
37097;SDS011;63608;49.572;12.348;2023-05-14T02:59:35;11.10;;;9.93;;
37097;SDS011;63608;49.572;12.348;2023-05-14T03:01:39;11.00;;;9.90;;
37097;SDS011;63608;49.572;12.348;2023-05-14T03:03:48;10.83;;;9.70;;
37097;SDS011;63608;49.572;12.348;2023-05-14T03:05:55;9.97;;;9.03;;
37097;SDS011;63608;49.572;12.348;2023-05-14T03:07:57;10.50;;;9.50;;
37097;SDS011;63608;49.572;12.348;2023-05-14T03:10:00;11.30;;;10.17;;
37097;SDS011;63608;49.572;12.348;2023-05-14T03:12:03;10.53;;;9.40;;
37097;SDS011;63608;49.572;12.348;2023-05-14T03:14:08;10.67;;;9.67;;
37097;SDS011;63608;49.572;12.348;2023-05-14T03:16:10;10.70;;;9.60;;
37097;SDS011;63608;49.572;12.348;2023-05-14T03:18:17;10.77;;;9.67;;
37097;SDS011;63608;49.572;12.348;2023-05-14T03:20:20;10.73;;;9.63;;
37097;SDS011;63608;49.572;12.348;2023-05-14T03:22:25;11.07;;;9.53;;
37097;SDS011;63608;49.572;12.348;2023-05-14T03:24:28;10.00;;;9.00;;
37097;SDS011;63608;49.572;12.348;2023-05-14T03:26:31;11.00;;;9.73;;
37097;SDS011;63608;49.572;12.348;2023-05-14T03:28:34;11.90;;;10.70;;
37097;SDS011;63608;49.572;12.348;2023-05-14T03:30:37;11.07;;;9.90;;
37097;SDS011;63608;49.572;12.348;2023-05-14T03:32:40;10.90;;;9.80;;
37097;SDS011;63608;49.572;12.348;2023-05-14T03:34:45;10.80;;;9.70;;
37097;SDS011;63608;49.572;12.348;2023-05-14T03:36:47;10.30;;;9.30;;
37097;SDS011;63608;49.572;12.348;2023-05-14T03:38:54;11.80;;;10.60;;
37097;SDS011;63608;49.572;12.348;2023-05-14T03:40:57;11.40;;;10.20;;
37097;SDS011;63608;49.572;12.348;2023-05-14T03:42:59;11.83;;;9.70;;
37097;SDS011;63608;49.572;12.348;2023-05-14T03:45:02;12.07;;;10.53;;
37097;SDS011;63608;49.572;12.348;2023-05-14T03:47:06;10.50;;;9.43;;
37097;SDS011;63608;49.572;12.348;2023-05-14T03:49:09;11.30;;;9.30;;
37097;SDS011;63608;49.572;12.348;2023-05-14T03:51:17;10.17;;;9.10;;
37097;SDS011;63608;49.572;12.348;2023-05-14T03:53:21;13.40;;;9.70;;
37097;SDS011;63608;49.572;12.348;2023-05-14T03:55:23;10.47;;;9.23;;
37097;SDS011;63608;49.572;12.348;2023-05-14T03:57:26;10.63;;;9.53;;
37097;SDS011;63608;49.572;12.348;2023-05-14T03:59:29;11.73;;;10.10;;
37097;SDS011;63608;49.572;12.348;2023-05-14T04:01:46;10.90;;;9.80;;
37097;SDS011;63608;49.572;12.348;2023-05-14T04:03:49;11.10;;;10.00;;
37097;SDS011;63608;49.572;12.348;2023-05-14T04:05:53;10.97;;;9.87;;
37097;SDS011;63608;49.572;12.348;2023-05-14T04:07:57;12.20;;;11.00;;
37097;SDS011;63608;49.572;12.348;2023-05-14T04:10:03;11.07;;;9.97;;
37097;SDS011;63608;49.572;12.348;2023-05-14T04:12:07;10.30;;;9.30;;
37097;SDS011;63608;49.572;12.348;2023-05-14T04:14:10;10.93;;;9.77;;
37097;SDS011;63608;49.572;12.348;2023-05-14T04:16:13;11.00;;;9.90;;
37097;SDS011;63608;49.572;12.348;2023-05-14T04:18:15;11.00;;;9.80;;
37097;SDS011;63608;49.572;12.348;2023-05-14T04:20:21;10.50;;;9.50;;
37097;SDS011;63608;49.572;12.348;2023-05-14T04:22:24;12.23;;;10.93;;
37097;SDS011;63608;49.572;12.348;2023-05-14T04:24:28;10.73;;;9.73;;
37097;SDS011;63608;49.572;12.348;2023-05-14T04:26:33;28.83;;;9.63;;
37097;SDS011;63608;49.572;12.348;2023-05-14T04:28:36;10.70;;;9.60;;
37097;SDS011;63608;49.572;12.348;2023-05-14T04:30:39;9.87;;;8.87;;
37097;SDS011;63608;49.572;12.348;2023-05-14T04:32:45;10.57;;;8.90;;
37097;SDS011;63608;49.572;12.348;2023-05-14T04:34:48;12.70;;;9.90;;
37097;SDS011;63608;49.572;12.348;2023-05-14T04:36:51;16.33;;;9.90;;
37097;SDS011;63608;49.572;12.348;2023-05-14T04:38:53;10.70;;;9.60;;
37097;SDS011;63608;49.572;12.348;2023-05-14T04:40:58;11.13;;;9.63;;
37097;SDS011;63608;49.572;12.348;2023-05-14T04:43:01;10.20;;;9.13;;
37097;SDS011;63608;49.572;12.348;2023-05-14T04:45:05;10.70;;;9.70;;
37097;SDS011;63608;49.572;12.348;2023-05-14T04:47:09;10.13;;;9.13;;
37097;SDS011;63608;49.572;12.348;2023-05-14T04:49:14;10.53;;;9.30;;
37097;SDS011;63608;49.572;12.348;2023-05-14T04:51:20;9.33;;;8.33;;
37097;SDS011;63608;49.572;12.348;2023-05-14T04:53:27;10.87;;;9.77;;
37097;SDS011;63608;49.572;12.348;2023-05-14T04:55:30;11.33;;;9.90;;
37097;SDS011;63608;49.572;12.348;2023-05-14T04:57:34;10.80;;;9.70;;
37097;SDS011;63608;49.572;12.348;2023-05-14T04:59:37;10.23;;;9.03;;
37097;SDS011;63608;49.572;12.348;2023-05-14T05:01:40;11.17;;;10.07;;
37097;SDS011;63608;49.572;12.348;2023-05-14T05:03:44;10.70;;;9.60;;
37097;SDS011;63608;49.572;12.348;2023-05-14T05:05:47;13.33;;;11.00;;
37097;SDS011;63608;49.572;12.348;2023-05-14T05:07:51;11.40;;;10.30;;
37097;SDS011;63608;49.572;12.348;2023-05-14T05:09:54;10.83;;;9.73;;
37097;SDS011;63608;49.572;12.348;2023-05-14T05:11:56;10.80;;;9.63;;
37097;SDS011;63608;49.572;12.348;2023-05-14T05:14:05;10.13;;;9.03;;
37097;SDS011;63608;49.572;12.348;2023-05-14T05:16:11;11.37;;;9.70;;
37097;SDS011;63608;49.572;12.348;2023-05-14T05:18:16;10.70;;;9.57;;
37097;SDS011;63608;49.572;12.348;2023-05-14T05:20:24;11.00;;;9.87;;
37097;SDS011;63608;49.572;12.348;2023-05-14T05:22:27;10.73;;;9.63;;
37097;SDS011;63608;49.572;12.348;2023-05-14T05:24:30;11.77;;;10.23;;
37097;SDS011;63608;49.572;12.348;2023-05-14T05:26:42;11.60;;;10.33;;
37097;SDS011;63608;49.572;12.348;2023-05-14T05:28:47;12.23;;;10.30;;
37097;SDS011;63608;49.572;12.348;2023-05-14T05:30:51;11.40;;;9.97;;
37097;SDS011;63608;49.572;12.348;2023-05-14T05:32:54;11.67;;;10.20;;
37097;SDS011;63608;49.572;12.348;2023-05-14T05:34:57;11.70;;;9.57;;
37097;SDS011;63608;49.572;12.348;2023-05-14T05:37:00;11.50;;;10.30;;
37097;SDS011;63608;49.572;12.348;2023-05-14T05:39:05;11.23;;;10.07;;
37097;SDS011;63608;49.572;12.348;2023-05-14T05:41:07;11.00;;;9.90;;
37097;SDS011;63608;49.572;12.348;2023-05-14T05:43:11;10.87;;;9.60;;
37097;SDS011;63608;49.572;12.348;2023-05-14T05:45:18;11.13;;;10.03;;
37097;SDS011;63608;49.572;12.348;2023-05-14T05:47:25;11.27;;;10.07;;
37097;SDS011;63608;49.572;12.348;2023-05-14T05:49:29;11.00;;;9.93;;
37097;SDS011;63608;49.572;12.348;2023-05-14T05:51:32;11.93;;;10.60;;
37097;SDS011;63608;49.572;12.348;2023-05-14T05:53:35;12.67;;;10.87;;
37097;SDS011;63608;49.572;12.348;2023-05-14T05:55:37;12.03;;;10.83;;
37097;SDS011;63608;49.572;12.348;2023-05-14T05:57:42;14.17;;;10.37;;
37097;SDS011;63608;49.572;12.348;2023-05-14T05:59:48;12.87;;;9.17;;
37097;SDS011;63608;49.572;12.348;2023-05-14T06:01:51;11.43;;;10.23;;
37097;SDS011;63608;49.572;12.348;2023-05-14T06:03:56;11.27;;;10.07;;
37097;SDS011;63608;49.572;12.348;2023-05-14T06:06:01;10.77;;;9.67;;
37097;SDS011;63608;49.572;12.348;2023-05-14T06:08:05;11.50;;;10.30;;
37097;SDS011;63608;49.572;12.348;2023-05-14T06:10:09;13.70;;;11.20;;
37097;SDS011;63608;49.572;12.348;2023-05-14T06:12:15;11.60;;;10.30;;
37097;SDS011;63608;49.572;12.348;2023-05-14T06:14:18;12.00;;;10.70;;
37097;SDS011;63608;49.572;12.348;2023-05-14T06:16:21;12.93;;;11.50;;
37097;SDS011;63608;49.572;12.348;2023-05-14T06:18:24;13.40;;;12.00;;
37097;SDS011;63608;49.572;12.348;2023-05-14T06:20:33;12.13;;;10.50;;
37097;SDS011;63608;49.572;12.348;2023-05-14T06:22:36;12.97;;;11.53;;
37097;SDS011;63608;49.572;12.348;2023-05-14T06:24:39;13.30;;;11.73;;
37097;SDS011;63608;49.572;12.348;2023-05-14T06:26:41;12.60;;;11.30;;
37097;SDS011;63608;49.572;12.348;2023-05-14T06:28:45;12.43;;;11.10;;
37097;SDS011;63608;49.572;12.348;2023-05-14T06:30:48;13.67;;;11.77;;
37097;SDS011;63608;49.572;12.348;2023-05-14T06:32:53;14.20;;;12.53;;
37097;SDS011;63608;49.572;12.348;2023-05-14T06:34:57;14.70;;;12.03;;
37097;SDS011;63608;49.572;12.348;2023-05-14T06:37:02;14.50;;;12.83;;
37097;SDS011;63608;49.572;12.348;2023-05-14T06:39:06;15.57;;;13.30;;
37097;SDS011;63608;49.572;12.348;2023-05-14T06:41:11;15.33;;;13.57;;
37097;SDS011;63608;49.572;12.348;2023-05-14T06:43:14;15.03;;;12.90;;
37097;SDS011;63608;49.572;12.348;2023-05-14T06:45:16;14.07;;;12.60;;
37097;SDS011;63608;49.572;12.348;2023-05-14T06:47:24;16.07;;;13.60;;
37097;SDS011;63608;49.572;12.348;2023-05-14T06:49:29;15.20;;;13.40;;
37097;SDS011;63608;49.572;12.348;2023-05-14T06:51:32;14.77;;;12.93;;
37097;SDS011;63608;49.572;12.348;2023-05-14T06:53:37;17.90;;;13.30;;
37097;SDS011;63608;49.572;12.348;2023-05-14T06:55:42;18.87;;;14.20;;
37097;SDS011;63608;49.572;12.348;2023-05-14T06:57:44;15.03;;;13.43;;
37097;SDS011;63608;49.572;12.348;2023-05-14T06:59:47;16.90;;;14.10;;
37097;SDS011;63608;49.572;12.348;2023-05-14T07:01:51;14.77;;;12.67;;
37097;SDS011;63608;49.572;12.348;2023-05-14T07:03:53;14.47;;;12.83;;
37097;SDS011;63608;49.572;12.348;2023-05-14T07:05:57;15.50;;;13.13;;
37097;SDS011;63608;49.572;12.348;2023-05-14T07:08:00;17.33;;;13.93;;
37097;SDS011;63608;49.572;12.348;2023-05-14T07:10:06;16.60;;;13.70;;
37097;SDS011;63608;49.572;12.348;2023-05-14T07:12:10;18.37;;;13.93;;
37097;SDS011;63608;49.572;12.348;2023-05-14T07:14:14;15.37;;;13.37;;
37097;SDS011;63608;49.572;12.348;2023-05-14T07:16:18;16.97;;;14.00;;
37097;SDS011;63608;49.572;12.348;2023-05-14T07:18:24;16.67;;;14.43;;
37097;SDS011;63608;49.572;12.348;2023-05-14T07:20:27;16.83;;;14.03;;
37097;SDS011;63608;49.572;12.348;2023-05-14T07:22:30;15.70;;;14.00;;
37097;SDS011;63608;49.572;12.348;2023-05-14T07:24:32;17.77;;;14.20;;
37097;SDS011;63608;49.572;12.348;2023-05-14T07:26:37;17.17;;;14.73;;
37097;SDS011;63608;49.572;12.348;2023-05-14T07:28:40;15.73;;;14.00;;
37097;SDS011;63608;49.572;12.348;2023-05-14T07:30:49;18.07;;;14.60;;
37097;SDS011;63608;49.572;12.348;2023-05-14T07:32:53;16.80;;;13.63;;
37097;SDS011;63608;49.572;12.348;2023-05-14T07:34:56;18.00;;;14.37;;
37097;SDS011;63608;49.572;12.348;2023-05-14T07:36:59;16.30;;;14.50;;
37097;SDS011;63608;49.572;12.348;2023-05-14T07:39:02;15.93;;;14.20;;
37097;SDS011;63608;49.572;12.348;2023-05-14T07:41:08;16.93;;;14.80;;
37097;SDS011;63608;49.572;12.348;2023-05-14T07:43:14;16.50;;;14.70;;
37097;SDS011;63608;49.572;12.348;2023-05-14T07:45:16;18.87;;;14.90;;
37097;SDS011;63608;49.572;12.348;2023-05-14T07:47:20;15.60;;;13.80;;
37097;SDS011;63608;49.572;12.348;2023-05-14T07:49:23;19.27;;;14.60;;
37097;SDS011;63608;49.572;12.348;2023-05-14T07:51:26;16.60;;;14.80;;
37097;SDS011;63608;49.572;12.348;2023-05-14T07:53:29;17.47;;;15.10;;
37097;SDS011;63608;49.572;12.348;2023-05-14T07:55:32;19.90;;;15.00;;
37097;SDS011;63608;49.572;12.348;2023-05-14T07:57:34;16.03;;;14.37;;
37097;SDS011;63608;49.572;12.348;2023-05-14T07:59:40;17.20;;;14.60;;
37097;SDS011;63608;49.572;12.348;2023-05-14T08:01:43;16.17;;;13.97;;
37097;SDS011;63608;49.572;12.348;2023-05-14T08:03:46;16.70;;;14.43;;
37097;SDS011;63608;49.572;12.348;2023-05-14T08:05:49;15.13;;;13.53;;
37097;SDS011;63608;49.572;12.348;2023-05-14T08:07:52;18.47;;;13.27;;
37097;SDS011;63608;49.572;12.348;2023-05-14T08:09:57;15.90;;;13.80;;
37097;SDS011;63608;49.572;12.348;2023-05-14T08:12:01;17.93;;;14.60;;
37097;SDS011;63608;49.572;12.348;2023-05-14T08:14:05;14.53;;;13.03;;
37097;SDS011;63608;49.572;12.348;2023-05-14T08:16:09;14.17;;;12.30;;
37097;SDS011;63608;49.572;12.348;2023-05-14T08:18:12;13.47;;;12.17;;
37097;SDS011;63608;49.572;12.348;2023-05-14T08:20:17;14.50;;;12.63;;
37097;SDS011;63608;49.572;12.348;2023-05-14T08:22:20;14.10;;;12.60;;
37097;SDS011;63608;49.572;12.348;2023-05-14T08:24:23;15.43;;;12.70;;
37097;SDS011;63608;49.572;12.348;2023-05-14T08:26:27;13.40;;;11.93;;
37097;SDS011;63608;49.572;12.348;2023-05-14T08:28:31;14.60;;;12.50;;
37097;SDS011;63608;49.572;12.348;2023-05-14T08:30:33;13.20;;;12.00;;
37097;SDS011;63608;49.572;12.348;2023-05-14T08:32:37;13.90;;;12.50;;
37097;SDS011;63608;49.572;12.348;2023-05-14T08:34:41;13.00;;;11.70;;
37097;SDS011;63608;49.572;12.348;2023-05-14T08:36:44;18.37;;;11.90;;
37097;SDS011;63608;49.572;12.348;2023-05-14T08:38:50;12.60;;;11.40;;
37097;SDS011;63608;49.572;12.348;2023-05-14T08:40:55;13.67;;;12.13;;
37097;SDS011;63608;49.572;12.348;2023-05-14T08:42:59;12.17;;;10.97;;
37097;SDS011;63608;49.572;12.348;2023-05-14T08:45:03;12.20;;;11.00;;
37097;SDS011;63608;49.572;12.348;2023-05-14T08:47:07;12.43;;;11.30;;
37097;SDS011;63608;49.572;12.348;2023-05-14T08:49:17;13.47;;;11.80;;
37097;SDS011;63608;49.572;12.348;2023-05-14T08:51:25;12.37;;;11.10;;
37097;SDS011;63608;49.572;12.348;2023-05-14T08:53:32;12.60;;;11.30;;
37097;SDS011;63608;49.572;12.348;2023-05-14T08:55:37;11.90;;;10.73;;
37097;SDS011;63608;49.572;12.348;2023-05-14T08:57:40;12.03;;;10.73;;
37097;SDS011;63608;49.572;12.348;2023-05-14T08:59:42;12.40;;;11.10;;
37097;SDS011;63608;49.572;12.348;2023-05-14T09:01:46;12.10;;;10.60;;
37097;SDS011;63608;49.572;12.348;2023-05-14T09:03:49;13.10;;;11.80;;
37097;SDS011;63608;49.572;12.348;2023-05-14T09:05:53;12.40;;;11.10;;
37097;SDS011;63608;49.572;12.348;2023-05-14T09:07:56;13.17;;;11.10;;
37097;SDS011;63608;49.572;12.348;2023-05-14T09:10:00;9.90;;;9.00;;
37097;SDS011;63608;49.572;12.348;2023-05-14T09:12:04;10.90;;;9.87;;
37097;SDS011;63608;49.572;12.348;2023-05-14T09:14:09;10.57;;;9.57;;
37097;SDS011;63608;49.572;12.348;2023-05-14T09:16:15;11.50;;;10.40;;
37097;SDS011;63608;49.572;12.348;2023-05-14T09:18:19;11.60;;;10.40;;
37097;SDS011;63608;49.572;12.348;2023-05-14T09:20:22;12.40;;;11.10;;
37097;SDS011;63608;49.572;12.348;2023-05-14T09:22:29;11.87;;;10.83;;
37097;SDS011;63608;49.572;12.348;2023-05-14T09:24:34;12.27;;;10.67;;
37097;SDS011;63608;49.572;12.348;2023-05-14T09:26:40;12.60;;;11.30;;
37097;SDS011;63608;49.572;12.348;2023-05-14T09:28:44;13.33;;;11.93;;
37097;SDS011;63608;49.572;12.348;2023-05-14T09:30:49;11.77;;;10.67;;
37097;SDS011;63608;49.572;12.348;2023-05-14T09:32:53;13.60;;;11.33;;
37097;SDS011;63608;49.572;12.348;2023-05-14T09:34:56;13.00;;;10.60;;
37097;SDS011;63608;49.572;12.348;2023-05-14T09:36:59;10.67;;;9.70;;
37097;SDS011;63608;49.572;12.348;2023-05-14T09:39:04;12.27;;;11.07;;
37097;SDS011;63608;49.572;12.348;2023-05-14T09:41:07;11.90;;;10.80;;
37097;SDS011;63608;49.572;12.348;2023-05-14T09:43:09;11.80;;;10.60;;
37097;SDS011;63608;49.572;12.348;2023-05-14T09:45:14;10.97;;;10.07;;
37097;SDS011;63608;49.572;12.348;2023-05-14T09:47:18;11.77;;;10.47;;
37097;SDS011;63608;49.572;12.348;2023-05-14T09:49:20;11.53;;;9.47;;
37097;SDS011;63608;49.572;12.348;2023-05-14T09:51:24;10.60;;;9.70;;
37097;SDS011;63608;49.572;12.348;2023-05-14T09:53:34;10.77;;;9.63;;
37097;SDS011;63608;49.572;12.348;2023-05-14T09:55:39;11.17;;;10.07;;
37097;SDS011;63608;49.572;12.348;2023-05-14T09:57:45;10.77;;;9.67;;
37097;SDS011;63608;49.572;12.348;2023-05-14T09:59:48;10.80;;;9.73;;
37097;SDS011;63608;49.572;12.348;2023-05-14T10:01:52;10.47;;;9.50;;
37097;SDS011;63608;49.572;12.348;2023-05-14T10:03:55;10.40;;;9.43;;
37097;SDS011;63608;49.572;12.348;2023-05-14T10:05:59;13.43;;;10.47;;
37097;SDS011;63608;49.572;12.348;2023-05-14T10:08:04;13.17;;;11.87;;
37097;SDS011;63608;49.572;12.348;2023-05-14T10:10:12;11.50;;;10.40;;
37097;SDS011;63608;49.572;12.348;2023-05-14T10:12:19;10.93;;;9.87;;
37097;SDS011;63608;49.572;12.348;2023-05-14T10:14:24;11.10;;;10.10;;
37097;SDS011;63608;49.572;12.348;2023-05-14T10:16:32;11.60;;;10.60;;
37097;SDS011;63608;49.572;12.348;2023-05-14T10:18:38;11.23;;;10.13;;
37097;SDS011;63608;49.572;12.348;2023-05-14T10:20:45;12.07;;;10.87;;
37097;SDS011;63608;49.572;12.348;2023-05-14T10:22:49;11.53;;;10.00;;
37097;SDS011;63608;49.572;12.348;2023-05-14T10:24:52;11.73;;;10.63;;
37097;SDS011;63608;49.572;12.348;2023-05-14T10:26:55;12.77;;;11.23;;
37097;SDS011;63608;49.572;12.348;2023-05-14T10:29:00;13.37;;;12.07;;
37097;SDS011;63608;49.572;12.348;2023-05-14T10:31:04;14.00;;;12.50;;
37097;SDS011;63608;49.572;12.348;2023-05-14T10:33:10;13.93;;;12.60;;
37097;SDS011;63608;49.572;12.348;2023-05-14T10:35:15;13.17;;;11.87;;
37097;SDS011;63608;49.572;12.348;2023-05-14T10:37:20;12.03;;;10.93;;
37097;SDS011;63608;49.572;12.348;2023-05-14T10:39:35;11.67;;;10.47;;
37097;SDS011;63608;49.572;12.348;2023-05-14T10:41:42;12.40;;;11.20;;
37097;SDS011;63608;49.572;12.348;2023-05-14T10:43:45;10.50;;;9.60;;
37097;SDS011;63608;49.572;12.348;2023-05-14T10:45:52;12.90;;;11.23;;
37097;SDS011;63608;49.572;12.348;2023-05-14T10:47:56;12.73;;;10.93;;
37097;SDS011;63608;49.572;12.348;2023-05-14T10:50:00;11.83;;;10.63;;
37097;SDS011;63608;49.572;12.348;2023-05-14T10:52:07;11.80;;;10.60;;
37097;SDS011;63608;49.572;12.348;2023-05-14T10:54:10;12.67;;;11.47;;
37097;SDS011;63608;49.572;12.348;2023-05-14T10:56:17;12.00;;;9.63;;
37097;SDS011;63608;49.572;12.348;2023-05-14T10:58:20;11.30;;;10.27;;
37097;SDS011;63608;49.572;12.348;2023-05-14T11:00:24;11.50;;;10.40;;
37097;SDS011;63608;49.572;12.348;2023-05-14T11:02:29;11.43;;;10.30;;
37097;SDS011;63608;49.572;12.348;2023-05-14T11:04:32;11.43;;;10.33;;
37097;SDS011;63608;49.572;12.348;2023-05-14T11:06:35;10.60;;;9.60;;
37097;SDS011;63608;49.572;12.348;2023-05-14T11:08:40;10.30;;;9.40;;
37097;SDS011;63608;49.572;12.348;2023-05-14T11:10:45;10.67;;;9.67;;
37097;SDS011;63608;49.572;12.348;2023-05-14T11:12:49;10.17;;;9.17;;
37097;SDS011;63608;49.572;12.348;2023-05-14T11:14:55;9.80;;;8.80;;
37097;SDS011;63608;49.572;12.348;2023-05-14T11:17:00;9.93;;;8.87;;
37097;SDS011;63608;49.572;12.348;2023-05-14T11:21:25;9.90;;;9.00;;
37097;SDS011;63608;49.572;12.348;2023-05-14T11:23:29;9.20;;;8.40;;
37097;SDS011;63608;49.572;12.348;2023-05-14T11:25:35;10.37;;;9.27;;
37097;SDS011;63608;49.572;12.348;2023-05-14T11:27:47;11.00;;;10.00;;
37097;SDS011;63608;49.572;12.348;2023-05-14T11:29:55;10.30;;;9.30;;
37097;SDS011;63608;49.572;12.348;2023-05-14T11:32:00;10.60;;;9.50;;
37097;SDS011;63608;49.572;12.348;2023-05-14T11:34:05;9.33;;;8.50;;
37097;SDS011;63608;49.572;12.348;2023-05-14T11:36:10;10.20;;;9.20;;
37097;SDS011;63608;49.572;12.348;2023-05-14T11:38:14;10.07;;;9.17;;
37097;SDS011;63608;49.572;12.348;2023-05-14T11:40:17;11.20;;;10.10;;
37097;SDS011;63608;49.572;12.348;2023-05-14T11:42:20;12.50;;;11.20;;
37097;SDS011;63608;49.572;12.348;2023-05-14T11:44:25;11.80;;;10.50;;
37097;SDS011;63608;49.572;12.348;2023-05-14T11:46:27;13.10;;;11.50;;
37097;SDS011;63608;49.572;12.348;2023-05-14T11:48:30;11.77;;;10.67;;
37097;SDS011;63608;49.572;12.348;2023-05-14T11:50:34;12.07;;;10.87;;
37097;SDS011;63608;49.572;12.348;2023-05-14T11:52:39;11.07;;;10.07;;
37097;SDS011;63608;49.572;12.348;2023-05-14T11:54:42;11.20;;;10.20;;
37097;SDS011;63608;49.572;12.348;2023-05-14T11:56:48;10.70;;;9.60;;
37097;SDS011;63608;49.572;12.348;2023-05-14T11:58:54;11.60;;;9.83;;
37097;SDS011;63608;49.572;12.348;2023-05-14T12:00:58;14.40;;;9.10;;
37097;SDS011;63608;49.572;12.348;2023-05-14T12:03:02;10.50;;;9.50;;
37097;SDS011;63608;49.572;12.348;2023-05-14T12:05:05;10.77;;;9.77;;
37097;SDS011;63608;49.572;12.348;2023-05-14T12:07:11;11.50;;;10.40;;
37097;SDS011;63608;49.572;12.348;2023-05-14T12:09:17;11.13;;;9.93;;